CW9533 Torre Faro Messina IT current weather conditions

sailwx.info

Wind from 165 at 0 knots gusting 3

Air temperature 12.8° C
Dewpoint 8.1° C

Last reported at 2014-Dec-17 20:54 UTC.
Time now 2014-Dec-17 21:39 UTC

Location: N 38°16' E 015°39'.
View on Google Maps.

See reports from other nearby stations

  
Tides and Currents Weather Stations Pressure Air Temp Water Temp Dewpoint Dewpoint Depression Visibility Wind Speed Wind Dir Waves Ship Positions
date/time (UTC)wind fromknots sea level pressurealtimeterstation pressurevisibilityair tempwater tempwave heightnotes
2014-Dec-17 20:54 165 0 gusting 3 12.8
2014-Dec-17 20:39 165 2 gusting 4 12.8
2014-Dec-17 20:24 164 12.8
2014-Dec-17 20:09 164 1 gusting 6 12.8
2014-Dec-17 19:54 164 1 gusting 5 12.8
2014-Dec-17 19:39 164 2 gusting 6 12.8
2014-Dec-17 19:24 164 3 gusting 6 13.3
2014-Dec-17 19:09 164 2 gusting 5 13.3
2014-Dec-17 18:54 164 2 gusting 5 13.3
2014-Dec-17 18:39 164 2 gusting 5 13.3
2014-Dec-17 18:24 164 3 gusting 6 13.3
2014-Dec-17 18:09 164 4 gusting 6 13.9
2014-Dec-17 17:54 164 3 gusting 8 13.9
2014-Dec-17 17:39 164 2 gusting 6 13.9
2014-Dec-17 17:24 164 3 gusting 6 13.9
2014-Dec-17 17:09 163 4 gusting 6 13.9
2014-Dec-17 16:54 163 3 gusting 6 14.4
2014-Dec-17 16:39 163 2 gusting 4 14.4
2014-Dec-17 16:24 163 2 gusting 5 14.4
2014-Dec-17 16:09 163 2 gusting 5 15.0
2014-Dec-17 15:54 163 0 gusting 3 15.0
2014-Dec-17 15:39 164 15.0
2014-Dec-17 15:24 164 1 gusting 4 15.0
2014-Dec-17 15:09 164 3 gusting 5 15.6
2014-Dec-17 14:54 163 0 gusting 3 16.1
2014-Dec-17 14:39 163 2 gusting 5 16.1
2014-Dec-17 14:24 163 0 gusting 3 16.7
2014-Dec-17 14:09 163 1 gusting 3 16.7
2014-Dec-17 13:54 163 2 gusting 6 16.7
2014-Dec-17 13:39 163 3 gusting 9 16.7
2014-Dec-17 13:24 163 2 gusting 6 16.7
2014-Dec-17 13:09 163 3 gusting 8 16.7
2014-Dec-17 12:55 163 3 gusting 10 16.7
2014-Dec-17 12:39 163 3 gusting 9 16.7
2014-Dec-17 12:24 163 5 gusting 8 16.1
2014-Dec-17 12:09 163 4 gusting 10 16.1
2014-Dec-17 11:54 163 4 gusting 9 16.1
2014-Dec-17 11:39 163 2 gusting 7 16.1
2014-Dec-17 11:24 163 6 gusting 13 16.1
2014-Dec-17 11:09 163 6 gusting 12 16.7
2014-Dec-17 10:54 163 5 gusting 10 16.7
2014-Dec-17 10:39 163 5 gusting 9 16.1
2014-Dec-17 10:24 163 4 gusting 10 16.1
2014-Dec-17 10:09 163 3 gusting 10 16.1
2014-Dec-17 09:54 163 4 gusting 10 16.1
2014-Dec-17 09:39 163 4 gusting 9 16.1
2014-Dec-17 09:24 163 4 gusting 10 16.1
2014-Dec-17 09:09 163 3 gusting 9 15.6
2014-Dec-17 08:54 163 3 gusting 7 15.6
2014-Dec-17 08:39 163 1 gusting 4 14.4
2014-Dec-17 08:24 163 2 gusting 4 13.9
2014-Dec-17 08:09 164 1 gusting 4 13.9
2014-Dec-17 07:54 164 1 gusting 5 13.3
2014-Dec-17 07:39 165 1 gusting 5 13.3
2014-Dec-17 07:24 165 0 gusting 3 13.3
2014-Dec-17 07:08 165 2 gusting 4 13.3
2014-Dec-17 06:53
2014-Dec-17 06:38
2014-Dec-17 06:23
2014-Dec-17 06:08
2014-Dec-17 05:53
2014-Dec-17 05:38
2014-Dec-17 05:23
2014-Dec-17 05:08
2014-Dec-17 04:53
2014-Dec-17 04:38
2014-Dec-17 04:23
2014-Dec-17 04:08 165 2 gusting 6 12.8
2014-Dec-17 03:53 165 0 gusting 6 12.2
2014-Dec-17 03:38 165 1 gusting 5 12.2
2014-Dec-17 03:23 165 1 gusting 4 12.2
2014-Dec-17 03:08 165 1 gusting 3 12.2
2014-Dec-17 02:53 165 2 gusting 4 12.2
2014-Dec-17 02:38 165 12.2
2014-Dec-17 02:22 165 2 gusting 5 11.7
2014-Dec-17 02:07 165 1 gusting 4 11.7
2014-Dec-17 01:52 165 1 gusting 4 12.2
2014-Dec-17 01:37 165 12.2
2014-Dec-17 01:22 165 12.2
2014-Dec-17 01:07 165 12.2
2014-Dec-17 00:52 165 0 gusting 3 12.2
2014-Dec-17 00:37 165 2 gusting 3 12.2
2014-Dec-17 00:22 165 12.2
2014-Dec-17 00:07 165 2 gusting 6 12.2
2014-Dec-16 23:52 165 5 gusting 6 12.2
2014-Dec-16 23:37 165 3 gusting 6 12.8
2014-Dec-16 23:22 165 3 gusting 6 12.8
2014-Dec-16 23:07 165 3 gusting 6 12.8
2014-Dec-16 22:52 165 5 gusting 7 12.8
2014-Dec-16 22:37 165 3 gusting 6 12.8
2014-Dec-16 22:22 165 3 gusting 6 12.8
2014-Dec-16 22:07 165 1 gusting 6 13.3
2014-Dec-16 21:52 165 4 gusting 6 13.3
2014-Dec-16 21:37 165 4 gusting 6 13.3
2014-Dec-16 21:22 165 4 gusting 6 13.3
2014-Dec-16 21:07 165 4 gusting 6 13.9
2014-Dec-16 20:52 165 13.9
2014-Dec-16 20:37 165 4 gusting 7 13.9
2014-Dec-16 20:22 165 14.4
2014-Dec-16 20:07 164 1 gusting 5 15.0
2014-Dec-16 19:52 164 1 gusting 6 15.6
2014-Dec-16 19:37 164 2 gusting 6 15.6
2014-Dec-16 19:22 163 3 gusting 8 15.6
2014-Dec-16 19:07 163 2 gusting 6 16.1
2014-Dec-16 18:52 163 6 gusting 11 16.1
2014-Dec-16 00:20 165 10 gusting 16 17.2
2014-Dec-16 00:05 165 10 gusting 17 17.2
2014-Dec-15 23:50 165 8 gusting 16 17.2
2014-Dec-15 23:35 165 6 gusting 19 17.2
2014-Dec-15 23:05 165 13 gusting 25 16.7
2014-Dec-15 22:49 165 13 gusting 24 16.7
2014-Dec-15 22:34 166 9 gusting 25 16.7
2014-Dec-15 22:19 165 10 gusting 24 16.7
2014-Dec-15 22:04 165 8 gusting 20 16.7
2014-Dec-15 21:49 165 10 gusting 21 17.2
2014-Dec-15 21:34 165 8 gusting 19 17.2
2014-Dec-15 21:19 165 9 gusting 16 17.2
2014-Dec-15 21:04 165 7 gusting 19 17.2